sensor_id;sensor_type;location;lat;lon;timestamp;pressure;altitude;pressure_sealevel;temperature;humidity
76592;BME280;65481;47.600;19.682;2023-03-11T00:04:09;98042.22;;;10.08;100.00
76592;BME280;65481;47.600;19.682;2023-03-11T00:09:10;98044.34;;;10.06;100.00
76592;BME280;65481;47.600;19.682;2023-03-11T00:14:11;98058.06;;;10.03;100.00
76592;BME280;65481;47.600;19.682;2023-03-11T00:19:11;98057.03;;;9.98;100.00
76592;BME280;65481;47.600;19.682;2023-03-11T00:24:12;98057.66;;;9.90;100.00
76592;BME280;65481;47.600;19.682;2023-03-11T00:29:12;98074.03;;;9.82;100.00
76592;BME280;65481;47.600;19.682;2023-03-11T00:34:13;98075.16;;;9.76;100.00
76592;BME280;65481;47.600;19.682;2023-03-11T00:39:13;98087.03;;;9.68;100.00
76592;BME280;65481;47.600;19.682;2023-03-11T00:44:14;98082.66;;;9.58;100.00
76592;BME280;65481;47.600;19.682;2023-03-11T00:49:14;98091.66;;;9.47;100.00
76592;BME280;65481;47.600;19.682;2023-03-11T00:54:15;98077.75;;;9.36;100.00
76592;BME280;65481;47.600;19.682;2023-03-11T00:59:15;98070.97;;;9.30;100.00
76592;BME280;65481;47.600;19.682;2023-03-11T01:04:16;98074.13;;;9.27;100.00
76592;BME280;65481;47.600;19.682;2023-03-11T01:09:16;98066.50;;;9.25;100.00
76592;BME280;65481;47.600;19.682;2023-03-11T01:14:17;98062.84;;;9.21;100.00
76592;BME280;65481;47.600;19.682;2023-03-11T01:19:18;98056.03;;;9.15;100.00
76592;BME280;65481;47.600;19.682;2023-03-11T01:24:18;98074.00;;;9.02;100.00
76592;BME280;65481;47.600;19.682;2023-03-11T01:29:19;98068.47;;;9.04;100.00
76592;BME280;65481;47.600;19.682;2023-03-11T01:34:19;98060.03;;;9.02;100.00
76592;BME280;65481;47.600;19.682;2023-03-11T01:39:20;98059.28;;;9.01;100.00
76592;BME280;65481;47.600;19.682;2023-03-11T01:44:21;98055.84;;;8.96;100.00
76592;BME280;65481;47.600;19.682;2023-03-11T01:49:22;98060.41;;;8.85;100.00
76592;BME280;65481;47.600;19.682;2023-03-11T01:54:26;98049.13;;;8.74;100.00
76592;BME280;65481;47.600;19.682;2023-03-11T01:59:30;98040.50;;;8.63;100.00
76592;BME280;65481;47.600;19.682;2023-03-11T02:04:32;98028.13;;;8.63;100.00
76592;BME280;65481;47.600;19.682;2023-03-11T02:09:33;98018.16;;;8.55;100.00
76592;BME280;65481;47.600;19.682;2023-03-11T02:14:35;98037.34;;;8.45;100.00
76592;BME280;65481;47.600;19.682;2023-03-11T02:19:57;98019.75;;;8.41;100.00
76592;BME280;65481;47.600;19.682;2023-03-11T02:30:22;98030.84;;;8.17;100.00
76592;BME280;65481;47.600;19.682;2023-03-11T02:35:25;98042.94;;;8.13;100.00
76592;BME280;65481;47.600;19.682;2023-03-11T02:45:45;98069.47;;;8.01;100.00
76592;BME280;65481;47.600;19.682;2023-03-11T02:50:47;98059.50;;;8.08;100.00
76592;BME280;65481;47.600;19.682;2023-03-11T02:55:48;98056.06;;;8.18;100.00
76592;BME280;65481;47.600;19.682;2023-03-11T03:00:48;98057.94;;;8.12;100.00
76592;BME280;65481;47.600;19.682;2023-03-11T03:05:49;98055.81;;;8.09;100.00
76592;BME280;65481;47.600;19.682;2023-03-11T03:10:50;98051.88;;;8.01;100.00
76592;BME280;65481;47.600;19.682;2023-03-11T03:15:51;98060.53;;;8.02;100.00
76592;BME280;65481;47.600;19.682;2023-03-11T03:20:52;98036.91;;;8.07;100.00
76592;BME280;65481;47.600;19.682;2023-03-11T03:25:52;98044.00;;;8.12;100.00
76592;BME280;65481;47.600;19.682;2023-03-11T03:30:53;98055.53;;;8.16;100.00
76592;BME280;65481;47.600;19.682;2023-03-11T03:35:53;98052.66;;;8.17;100.00
76592;BME280;65481;47.600;19.682;2023-03-11T03:40:54;98050.81;;;8.18;100.00
76592;BME280;65481;47.600;19.682;2023-03-11T03:46:02;98047.91;;;8.30;94.38
76592;BME280;65481;47.600;19.682;2023-03-11T03:51:07;98065.75;;;8.43;90.85
76592;BME280;65481;47.600;19.682;2023-03-11T03:56:14;98079.94;;;8.47;88.95
76592;BME280;65481;47.600;19.682;2023-03-11T04:01:15;98094.41;;;8.50;88.28
76592;BME280;65481;47.600;19.682;2023-03-11T04:06:24;98100.16;;;8.47;87.88
76592;BME280;65481;47.600;19.682;2023-03-11T04:11:25;98098.31;;;8.47;88.46
76592;BME280;65481;47.600;19.682;2023-03-11T04:16:25;98107.78;;;8.43;88.63
76592;BME280;65481;47.600;19.682;2023-03-11T04:21:26;98106.75;;;8.44;87.01
76592;BME280;65481;47.600;19.682;2023-03-11T04:26:28;98085.44;;;8.41;87.63
76592;BME280;65481;47.600;19.682;2023-03-11T04:31:29;98087.03;;;8.37;88.04
76592;BME280;65481;47.600;19.682;2023-03-11T04:36:29;98103.59;;;8.32;88.42
76592;BME280;65481;47.600;19.682;2023-03-11T04:41:30;98109.66;;;8.32;82.76
76592;BME280;65481;47.600;19.682;2023-03-11T04:46:30;98126.22;;;8.28;84.02
76592;BME280;65481;47.600;19.682;2023-03-11T04:51:31;98124.88;;;8.25;79.71
76592;BME280;65481;47.600;19.682;2023-03-11T04:56:32;98130.16;;;8.20;70.67
76592;BME280;65481;47.600;19.682;2023-03-11T05:01:32;98126.97;;;8.08;65.77
76592;BME280;65481;47.600;19.682;2023-03-11T05:06:33;98143.78;;;7.96;63.17
76592;BME280;65481;47.600;19.682;2023-03-11T05:11:33;98151.94;;;7.90;60.95
76592;BME280;65481;47.600;19.682;2023-03-11T05:16:34;98138.78;;;7.79;58.82
76592;BME280;65481;47.600;19.682;2023-03-11T05:21:35;98165.53;;;7.66;57.72
76592;BME280;65481;47.600;19.682;2023-03-11T05:26:35;98170.75;;;7.50;56.23
76592;BME280;65481;47.600;19.682;2023-03-11T05:31:36;98174.09;;;7.35;56.77
76592;BME280;65481;47.600;19.682;2023-03-11T05:36:36;98203.97;;;7.24;56.92
76592;BME280;65481;47.600;19.682;2023-03-11T05:41:37;98199.72;;;7.18;59.58
76592;BME280;65481;47.600;19.682;2023-03-11T05:46:37;98200.69;;;7.01;57.01
76592;BME280;65481;47.600;19.682;2023-03-11T05:51:38;98234.69;;;6.86;58.23
76592;BME280;65481;47.600;19.682;2023-03-11T05:56:40;98243.81;;;6.78;58.38
76592;BME280;65481;47.600;19.682;2023-03-11T06:01:41;98246.97;;;6.80;58.61
76592;BME280;65481;47.600;19.682;2023-03-11T06:06:42;98230.22;;;6.81;57.20
76592;BME280;65481;47.600;19.682;2023-03-11T06:11:43;98235.22;;;6.88;57.50
76592;BME280;65481;47.600;19.682;2023-03-11T06:16:43;98218.22;;;6.95;57.40
76592;BME280;65481;47.600;19.682;2023-03-11T06:21:44;98243.13;;;6.93;59.05
76592;BME280;65481;47.600;19.682;2023-03-11T06:26:44;98241.06;;;7.00;58.23
76592;BME280;65481;47.600;19.682;2023-03-11T06:31:46;98259.50;;;7.10;58.28
76592;BME280;65481;47.600;19.682;2023-03-11T06:36:46;98251.56;;;7.00;58.86
76592;BME280;65481;47.600;19.682;2023-03-11T06:41:48;98274.38;;;7.00;59.05
76592;BME280;65481;47.600;19.682;2023-03-11T06:46:48;98296.34;;;6.93;59.28
76592;BME280;65481;47.600;19.682;2023-03-11T06:51:49;98307.59;;;6.89;59.80
76592;BME280;65481;47.600;19.682;2023-03-11T06:56:49;98301.75;;;6.81;61.14
76592;BME280;65481;47.600;19.682;2023-03-11T07:01:50;98312.50;;;6.80;61.71
76592;BME280;65481;47.600;19.682;2023-03-11T07:06:50;98316.16;;;6.79;57.08
76592;BME280;65481;47.600;19.682;2023-03-11T07:11:51;98338.38;;;6.71;57.17
76592;BME280;65481;47.600;19.682;2023-03-11T07:16:51;98327.97;;;6.81;53.38
76592;BME280;65481;47.600;19.682;2023-03-11T07:21:52;98335.09;;;6.86;54.45
76592;BME280;65481;47.600;19.682;2023-03-11T07:26:52;98344.53;;;6.87;52.88
76592;BME280;65481;47.600;19.682;2023-03-11T07:31:53;98346.16;;;6.93;52.90
76592;BME280;65481;47.600;19.682;2023-03-11T07:36:53;98363.81;;;7.41;51.09
76592;BME280;65481;47.600;19.682;2023-03-11T07:41:54;98373.25;;;7.37;51.47
76592;BME280;65481;47.600;19.682;2023-03-11T07:46:54;98372.22;;;7.38;52.32
76592;BME280;65481;47.600;19.682;2023-03-11T07:51:55;98376.16;;;7.08;50.75
76592;BME280;65481;47.600;19.682;2023-03-11T07:56:55;98398.94;;;6.75;51.41
76592;BME280;65481;47.600;19.682;2023-03-11T08:01:56;98407.09;;;6.51;53.37
76592;BME280;65481;47.600;19.682;2023-03-11T08:06:57;98400.97;;;6.67;52.22
76592;BME280;65481;47.600;19.682;2023-03-11T08:11:57;98403.06;;;6.93;51.71
76592;BME280;65481;47.600;19.682;2023-03-11T08:16:58;98405.50;;;6.72;52.08
76592;BME280;65481;47.600;19.682;2023-03-11T08:22:01;98397.16;;;6.53;53.86
76592;BME280;65481;47.600;19.682;2023-03-11T08:27:02;98399.00;;;6.53;53.39
76592;BME280;65481;47.600;19.682;2023-03-11T08:32:03;98437.44;;;7.56;50.52
76592;BME280;65481;47.600;19.682;2023-03-11T08:37:03;98440.38;;;8.13;49.04
76592;BME280;65481;47.600;19.682;2023-03-11T08:42:04;98438.78;;;8.07;49.73
76592;BME280;65481;47.600;19.682;2023-03-11T08:47:05;98446.34;;;8.03;49.72
76592;BME280;65481;47.600;19.682;2023-03-11T08:52:05;98417.06;;;7.79;49.98
76592;BME280;65481;47.600;19.682;2023-03-11T08:57:06;98419.97;;;8.36;47.64
76592;BME280;65481;47.600;19.682;2023-03-11T09:02:09;98404.63;;;9.59;45.97
76592;BME280;65481;47.600;19.682;2023-03-11T09:07:10;98426.16;;;8.78;44.81
76592;BME280;65481;47.600;19.682;2023-03-11T09:12:12;98422.47;;;9.88;44.81
76592;BME280;65481;47.600;19.682;2023-03-11T09:17:13;98428.19;;;11.56;40.10
76592;BME280;65481;47.600;19.682;2023-03-11T09:22:14;98457.53;;;12.08;37.49
76592;BME280;65481;47.600;19.682;2023-03-11T09:27:15;98446.47;;;10.67;40.18
76592;BME280;65481;47.600;19.682;2023-03-11T09:32:16;98432.56;;;9.29;43.22
76592;BME280;65481;47.600;19.682;2023-03-11T09:37:16;98443.81;;;8.77;44.13
76592;BME280;65481;47.600;19.682;2023-03-11T09:58:01;98417.63;;;10.26;43.94
76592;BME280;65481;47.600;19.682;2023-03-11T10:03:06;98427.53;;;11.93;39.96
76592;BME280;65481;47.600;19.682;2023-03-11T10:08:27;98399.09;;;11.31;40.22
76592;BME280;65481;47.600;19.682;2023-03-11T10:13:44;98440.94;;;9.77;43.35
76592;BME280;65481;47.600;19.682;2023-03-11T10:18:54;98445.72;;;9.34;44.65
76592;BME280;65481;47.600;19.682;2023-03-11T10:35:21;98427.34;;;7.43;51.36
76592;BME280;65481;47.600;19.682;2023-03-11T10:40:34;98424.13;;;7.03;51.03
76592;BME280;65481;47.600;19.682;2023-03-11T10:45:38;98421.56;;;6.81;53.16
76592;BME280;65481;47.600;19.682;2023-03-11T10:55:57;98428.00;;;6.68;54.42
76592;BME280;65481;47.600;19.682;2023-03-11T11:01:00;98413.38;;;6.50;56.46
76592;BME280;65481;47.600;19.682;2023-03-11T11:06:05;98415.22;;;6.49;56.08
76592;BME280;65481;47.600;19.682;2023-03-11T11:11:20;98445.84;;;6.49;55.84
76592;BME280;65481;47.600;19.682;2023-03-11T11:16:21;98442.25;;;6.55;54.51
76592;BME280;65481;47.600;19.682;2023-03-11T11:26:33;98451.28;;;6.42;54.76
76592;BME280;65481;47.600;19.682;2023-03-11T11:31:35;98463.59;;;6.19;55.76
76592;BME280;65481;47.600;19.682;2023-03-11T11:36:36;98460.78;;;6.26;56.08
76592;BME280;65481;47.600;19.682;2023-03-11T11:41:38;98480.78;;;6.55;54.60
76592;BME280;65481;47.600;19.682;2023-03-11T11:46:54;98511.97;;;7.01;54.02
76592;BME280;65481;47.600;19.682;2023-03-11T11:52:12;98522.34;;;8.10;51.37
76592;BME280;65481;47.600;19.682;2023-03-11T11:57:18;98536.69;;;8.99;48.20
76592;BME280;65481;47.600;19.682;2023-03-11T12:18:44;98549.25;;;8.81;46.78
76592;BME280;65481;47.600;19.682;2023-03-11T12:29:00;98545.44;;;8.13;48.00
76592;BME280;65481;47.600;19.682;2023-03-11T12:34:06;98543.31;;;8.05;48.77
76592;BME280;65481;47.600;19.682;2023-03-11T12:39:22;98548.56;;;8.05;46.16
76592;BME280;65481;47.600;19.682;2023-03-11T12:44:29;98547.44;;;8.87;44.95
76592;BME280;65481;47.600;19.682;2023-03-11T12:49:35;98552.78;;;9.07;43.18
76592;BME280;65481;47.600;19.682;2023-03-11T12:54:48;98570.28;;;10.12;43.11
76592;BME280;65481;47.600;19.682;2023-03-11T13:05:46;98575.03;;;9.74;43.31
76592;BME280;65481;47.600;19.682;2023-03-11T13:10:50;98583.16;;;8.72;43.33
76592;BME280;65481;47.600;19.682;2023-03-11T13:15:51;98608.00;;;8.16;44.34
76592;BME280;65481;47.600;19.682;2023-03-11T13:20:58;98627.44;;;7.55;45.26
76592;BME280;65481;47.600;19.682;2023-03-11T13:41:49;98678.09;;;7.11;47.00
76592;BME280;65481;47.600;19.682;2023-03-11T13:46:54;98663.84;;;7.47;46.52
76592;BME280;65481;47.600;19.682;2023-03-11T13:51:56;98654.78;;;7.87;45.38
76592;BME280;65481;47.600;19.682;2023-03-11T13:57:00;98659.09;;;7.71;44.58
76592;BME280;65481;47.600;19.682;2023-03-11T14:07:26;98662.78;;;7.48;45.27
76592;BME280;65481;47.600;19.682;2023-03-11T14:12:30;98675.97;;;7.80;45.40
76592;BME280;65481;47.600;19.682;2023-03-11T14:17:30;98697.78;;;7.81;45.07
76592;BME280;65481;47.600;19.682;2023-03-11T14:22:32;98717.78;;;8.09;44.60
76592;BME280;65481;47.600;19.682;2023-03-11T14:27:33;98725.16;;;8.45;43.75
76592;BME280;65481;47.600;19.682;2023-03-11T14:32:33;98752.41;;;7.56;45.24
76592;BME280;65481;47.600;19.682;2023-03-11T14:37:37;98767.94;;;6.85;46.48
76592;BME280;65481;47.600;19.682;2023-03-11T14:42:39;98793.03;;;6.63;48.27
76592;BME280;65481;47.600;19.682;2023-03-11T14:53:00;98805.13;;;6.35;49.38
76592;BME280;65481;47.600;19.682;2023-03-11T15:03:12;98810.25;;;6.30;49.30
76592;BME280;65481;47.600;19.682;2023-03-11T15:08:18;98799.41;;;6.10;51.22
76592;BME280;65481;47.600;19.682;2023-03-11T15:13:23;98789.97;;;6.09;51.53
76592;BME280;65481;47.600;19.682;2023-03-11T15:18:28;98784.63;;;6.03;50.84
76592;BME280;65481;47.600;19.682;2023-03-11T15:23:29;98796.56;;;6.11;50.95
76592;BME280;65481;47.600;19.682;2023-03-11T15:28:31;98813.06;;;6.12;51.58
76592;BME280;65481;47.600;19.682;2023-03-11T15:33:32;98849.84;;;6.05;52.18
76592;BME280;65481;47.600;19.682;2023-03-11T15:38:33;98853.28;;;6.05;50.74
76592;BME280;65481;47.600;19.682;2023-03-11T15:43:46;98864.78;;;6.04;51.29
76592;BME280;65481;47.600;19.682;2023-03-11T15:48:47;98884.81;;;5.99;51.71
76592;BME280;65481;47.600;19.682;2023-03-11T15:53:48;98918.28;;;5.85;52.57
76592;BME280;65481;47.600;19.682;2023-03-11T15:58:49;98928.28;;;5.64;53.41
76592;BME280;65481;47.600;19.682;2023-03-11T16:03:50;98928.03;;;5.42;54.03
76592;BME280;65481;47.600;19.682;2023-03-11T16:08:51;98924.03;;;5.15;55.34
76592;BME280;65481;47.600;19.682;2023-03-11T16:13:52;98936.13;;;4.98;55.47
76592;BME280;65481;47.600;19.682;2023-03-11T16:18:53;98963.59;;;4.89;55.59
76592;BME280;65481;47.600;19.682;2023-03-11T16:23:54;98976.41;;;4.78;54.99
76592;BME280;65481;47.600;19.682;2023-03-11T16:28:54;98992.50;;;4.75;55.12
76592;BME280;65481;47.600;19.682;2023-03-11T16:33:55;98996.66;;;4.64;56.37
76592;BME280;65481;47.600;19.682;2023-03-11T16:38:56;98989.31;;;4.54;56.46
76592;BME280;65481;47.600;19.682;2023-03-11T16:43:56;98992.03;;;4.48;57.26
76592;BME280;65481;47.600;19.682;2023-03-11T16:48:57;98993.09;;;4.40;58.91
76592;BME280;65481;47.600;19.682;2023-03-11T16:53:58;99000.94;;;4.40;59.08
76592;BME280;65481;47.600;19.682;2023-03-11T16:58:58;99041.66;;;4.48;57.83
76592;BME280;65481;47.600;19.682;2023-03-11T17:04:00;99063.28;;;4.55;58.03
76592;BME280;65481;47.600;19.682;2023-03-11T17:09:01;99091.97;;;4.62;58.36
76592;BME280;65481;47.600;19.682;2023-03-11T17:14:01;99093.56;;;4.63;57.45
76592;BME280;65481;47.600;19.682;2023-03-11T17:19:02;99093.75;;;4.61;58.38
76592;BME280;65481;47.600;19.682;2023-03-11T17:24:03;99086.16;;;4.60;58.13
76592;BME280;65481;47.600;19.682;2023-03-11T17:29:04;99096.00;;;4.58;58.98
76592;BME280;65481;47.600;19.682;2023-03-11T17:34:05;99092.22;;;4.53;58.22
76592;BME280;65481;47.600;19.682;2023-03-11T17:39:06;99102.25;;;4.57;56.90
76592;BME280;65481;47.600;19.682;2023-03-11T17:44:07;99120.31;;;4.58;57.97
76592;BME280;65481;47.600;19.682;2023-03-11T17:49:13;99130.41;;;4.54;58.24
76592;BME280;65481;47.600;19.682;2023-03-11T17:54:14;99142.88;;;4.52;57.69
76592;BME280;65481;47.600;19.682;2023-03-11T17:59:15;99150.50;;;4.54;58.30
76592;BME280;65481;47.600;19.682;2023-03-11T18:04:16;99157.53;;;4.53;58.04
76592;BME280;65481;47.600;19.682;2023-03-11T18:09:17;99151.34;;;4.48;57.71
76592;BME280;65481;47.600;19.682;2023-03-11T18:14:18;99151.00;;;4.44;58.16
76592;BME280;65481;47.600;19.682;2023-03-11T18:19:19;99161.06;;;4.40;57.93
76592;BME280;65481;47.600;19.682;2023-03-11T18:24:20;99162.66;;;4.42;58.37
76592;BME280;65481;47.600;19.682;2023-03-11T18:29:21;99178.97;;;4.37;57.36
76592;BME280;65481;47.600;19.682;2023-03-11T18:34:22;99191.97;;;4.44;56.60
76592;BME280;65481;47.600;19.682;2023-03-11T18:39:22;99197.84;;;4.39;56.63
76592;BME280;65481;47.600;19.682;2023-03-11T18:44:23;99198.09;;;4.31;56.14
76592;BME280;65481;47.600;19.682;2023-03-11T18:49:24;99216.25;;;4.19;57.19
76592;BME280;65481;47.600;19.682;2023-03-11T18:54:26;99206.09;;;4.04;57.66
76592;BME280;65481;47.600;19.682;2023-03-11T18:59:27;99208.56;;;3.92;58.11
76592;BME280;65481;47.600;19.682;2023-03-11T19:04:29;99208.38;;;3.87;57.79
76592;BME280;65481;47.600;19.682;2023-03-11T19:09:29;99208.19;;;3.88;57.22
76592;BME280;65481;47.600;19.682;2023-03-11T19:14:30;99213.56;;;3.93;57.36
76592;BME280;65481;47.600;19.682;2023-03-11T19:19:31;99210.41;;;3.91;57.41
76592;BME280;65481;47.600;19.682;2023-03-11T19:24:33;99231.88;;;3.87;57.64
76592;BME280;65481;47.600;19.682;2023-03-11T19:29:36;99263.22;;;3.80;57.17
76592;BME280;65481;47.600;19.682;2023-03-11T19:34:36;99266.47;;;3.69;58.33
76592;BME280;65481;47.600;19.682;2023-03-11T19:39:39;99277.13;;;3.60;58.37
76592;BME280;65481;47.600;19.682;2023-03-11T19:44:39;99280.00;;;3.45;58.58
76592;BME280;65481;47.600;19.682;2023-03-11T19:49:40;99293.25;;;3.30;60.03
76592;BME280;65481;47.600;19.682;2023-03-11T19:54:42;99298.88;;;3.27;59.62
76592;BME280;65481;47.600;19.682;2023-03-11T19:59:43;99294.84;;;3.38;59.86
76592;BME280;65481;47.600;19.682;2023-03-11T20:04:44;99303.25;;;3.47;60.64
76592;BME280;65481;47.600;19.682;2023-03-11T20:09:45;99295.63;;;3.52;60.37
76592;BME280;65481;47.600;19.682;2023-03-11T20:14:46;99330.13;;;3.61;60.15
76592;BME280;65481;47.600;19.682;2023-03-11T20:19:47;99330.50;;;3.64;60.27
76592;BME280;65481;47.600;19.682;2023-03-11T20:24:48;99340.31;;;3.69;60.10
76592;BME280;65481;47.600;19.682;2023-03-11T20:29:50;99332.72;;;3.68;59.96
76592;BME280;65481;47.600;19.682;2023-03-11T20:34:51;99311.88;;;3.61;60.18
76592;BME280;65481;47.600;19.682;2023-03-11T20:39:51;99309.84;;;3.49;60.60
76592;BME280;65481;47.600;19.682;2023-03-11T20:44:53;99316.28;;;3.47;61.26
76592;BME280;65481;47.600;19.682;2023-03-11T20:49:54;99321.13;;;3.43;60.09
76592;BME280;65481;47.600;19.682;2023-03-11T20:54:56;99312.09;;;3.39;60.28
76592;BME280;65481;47.600;19.682;2023-03-11T20:59:57;99326.53;;;3.28;60.97
76592;BME280;65481;47.600;19.682;2023-03-11T21:04:57;99317.75;;;3.16;61.40
76592;BME280;65481;47.600;19.682;2023-03-11T21:09:58;99315.72;;;3.05;62.14
76592;BME280;65481;47.600;19.682;2023-03-11T21:14:59;99303.91;;;2.95;62.50
76592;BME280;65481;47.600;19.682;2023-03-11T21:20:00;99307.50;;;2.87;63.56
76592;BME280;65481;47.600;19.682;2023-03-11T21:25:00;99329.16;;;2.88;63.24
76592;BME280;65481;47.600;19.682;2023-03-11T21:30:01;99351.38;;;2.84;63.12
76592;BME280;65481;47.600;19.682;2023-03-11T21:35:03;99380.84;;;2.78;63.87
76592;BME280;65481;47.600;19.682;2023-03-11T21:40:05;99382.84;;;2.69;64.10
76592;BME280;65481;47.600;19.682;2023-03-11T21:45:07;99391.41;;;2.63;63.41
76592;BME280;65481;47.600;19.682;2023-03-11T21:50:08;99401.63;;;2.57;63.71
76592;BME280;65481;47.600;19.682;2023-03-11T21:55:09;99404.41;;;2.49;60.19
76592;BME280;65481;47.600;19.682;2023-03-11T22:00:10;99415.41;;;2.45;57.39
76592;BME280;65481;47.600;19.682;2023-03-11T22:05:11;99425.38;;;2.41;56.45
76592;BME280;65481;47.600;19.682;2023-03-11T22:10:12;99437.00;;;2.38;55.59
76592;BME280;65481;47.600;19.682;2023-03-11T22:15:12;99437.34;;;2.29;56.09
76592;BME280;65481;47.600;19.682;2023-03-11T22:20:13;99429.50;;;2.15;57.78
76592;BME280;65481;47.600;19.682;2023-03-11T22:25:13;99443.00;;;2.04;58.45
76592;BME280;65481;47.600;19.682;2023-03-11T22:30:14;99441.31;;;1.89;58.49
76592;BME280;65481;47.600;19.682;2023-03-11T22:35:15;99429.47;;;1.80;56.57
76592;BME280;65481;47.600;19.682;2023-03-11T22:40:16;99424.97;;;1.67;56.52
76592;BME280;65481;47.600;19.682;2023-03-11T22:45:16;99449.94;;;1.61;56.11
76592;BME280;65481;47.600;19.682;2023-03-11T22:50:21;99475.13;;;1.61;56.79
76592;BME280;65481;47.600;19.682;2023-03-11T22:55:21;99491.25;;;1.49;56.65
76592;BME280;65481;47.600;19.682;2023-03-11T23:00:22;99488.81;;;1.48;57.17
76592;BME280;65481;47.600;19.682;2023-03-11T23:05:23;99501.38;;;1.44;57.12
76592;BME280;65481;47.600;19.682;2023-03-11T23:10:23;99504.47;;;1.33;57.39
76592;BME280;65481;47.600;19.682;2023-03-11T23:15:24;99513.00;;;1.27;57.57
76592;BME280;65481;47.600;19.682;2023-03-11T23:20:24;99531.94;;;1.20;58.32
76592;BME280;65481;47.600;19.682;2023-03-11T23:25:25;99533.47;;;1.15;58.82
76592;BME280;65481;47.600;19.682;2023-03-11T23:30:25;99553.47;;;1.14;58.92
76592;BME280;65481;47.600;19.682;2023-03-11T23:35:26;99553.19;;;1.09;59.02
76592;BME280;65481;47.600;19.682;2023-03-11T23:40:26;99557.50;;;1.02;59.48
76592;BME280;65481;47.600;19.682;2023-03-11T23:45:27;99573.63;;;0.97;59.71
76592;BME280;65481;47.600;19.682;2023-03-11T23:50:27;99583.75;;;0.92;59.94
76592;BME280;65481;47.600;19.682;2023-03-11T23:55:28;99588.06;;;0.85;59.97
